sensor_id;sensor_type;location;lat;lon;timestamp;pressure;altitude;pressure_sealevel;temperature;humidity
75208;BME280;63795;55.684;37.864;2023-06-14T00:00:42;100166.78;;;15.16;41.99
75208;BME280;63795;55.684;37.864;2023-06-14T00:05:43;100171.84;;;15.05;41.54
75208;BME280;63795;55.684;37.864;2023-06-14T00:10:44;100172.31;;;15.00;42.62
75208;BME280;63795;55.684;37.864;2023-06-14T00:15:45;100175.25;;;14.96;44.12
75208;BME280;63795;55.684;37.864;2023-06-14T00:20:46;100167.94;;;14.92;42.39
75208;BME280;63795;55.684;37.864;2023-06-14T00:25:47;100169.59;;;14.93;42.02
75208;BME280;63795;55.684;37.864;2023-06-14T00:30:48;100170.00;;;14.91;41.85
75208;BME280;63795;55.684;37.864;2023-06-14T00:35:48;100168.06;;;14.85;41.87
75208;BME280;63795;55.684;37.864;2023-06-14T00:40:49;100167.31;;;14.77;41.76
75208;BME280;63795;55.684;37.864;2023-06-14T00:45:49;100161.66;;;14.74;41.76
75208;BME280;63795;55.684;37.864;2023-06-14T00:50:51;100160.16;;;14.66;42.01
75208;BME280;63795;55.684;37.864;2023-06-14T00:55:52;100171.59;;;14.62;42.13
75208;BME280;63795;55.684;37.864;2023-06-14T01:00:54;100166.78;;;14.56;42.42
75208;BME280;63795;55.684;37.864;2023-06-14T01:11:22;100168.59;;;14.42;43.59
75208;BME280;63795;55.684;37.864;2023-06-14T01:16:25;100178.47;;;14.34;42.94
75208;BME280;63795;55.684;37.864;2023-06-14T01:21:26;100177.66;;;14.34;43.07
75208;BME280;63795;55.684;37.864;2023-06-14T01:26:28;100171.19;;;14.30;43.96
75208;BME280;63795;55.684;37.864;2023-06-14T01:31:29;100177.31;;;14.25;43.49
75208;BME280;63795;55.684;37.864;2023-06-14T01:36:41;100192.41;;;14.22;46.31
75208;BME280;63795;55.684;37.864;2023-06-14T01:41:45;100172.13;;;14.16;44.48
75208;BME280;63795;55.684;37.864;2023-06-14T01:46:46;100179.00;;;14.19;46.70
75208;BME280;63795;55.684;37.864;2023-06-14T01:51:46;100177.00;;;14.16;44.23
75208;BME280;63795;55.684;37.864;2023-06-14T01:56:47;100176.97;;;14.19;43.93
75208;BME280;63795;55.684;37.864;2023-06-14T02:01:47;100176.50;;;14.24;44.10
75208;BME280;63795;55.684;37.864;2023-06-14T02:06:48;100174.84;;;14.27;43.82
75208;BME280;63795;55.684;37.864;2023-06-14T02:11:48;100181.31;;;14.34;43.76
75208;BME280;63795;55.684;37.864;2023-06-14T02:16:49;100173.53;;;14.38;44.59
75208;BME280;63795;55.684;37.864;2023-06-14T02:21:49;100186.50;;;14.43;44.48
75208;BME280;63795;55.684;37.864;2023-06-14T02:26:50;100170.16;;;14.47;44.11
75208;BME280;63795;55.684;37.864;2023-06-14T02:31:50;100172.59;;;14.48;44.20
75208;BME280;63795;55.684;37.864;2023-06-14T02:36:51;100181.44;;;14.58;44.12
75208;BME280;63795;55.684;37.864;2023-06-14T02:41:52;100176.88;;;14.64;44.38
75208;BME280;63795;55.684;37.864;2023-06-14T02:46:54;100178.78;;;14.74;43.87
75208;BME280;63795;55.684;37.864;2023-06-14T02:51:55;100183.56;;;14.84;44.16
75208;BME280;63795;55.684;37.864;2023-06-14T02:56:56;100181.84;;;14.90;44.00
75208;BME280;63795;55.684;37.864;2023-06-14T03:01:56;100187.03;;;14.98;46.32
75208;BME280;63795;55.684;37.864;2023-06-14T03:06:57;100196.81;;;15.01;44.57
75208;BME280;63795;55.684;37.864;2023-06-14T03:11:57;100185.59;;;15.13;44.29
75208;BME280;63795;55.684;37.864;2023-06-14T03:16:58;100183.09;;;15.19;46.14
75208;BME280;63795;55.684;37.864;2023-06-14T03:21:59;100194.88;;;15.21;48.03
75208;BME280;63795;55.684;37.864;2023-06-14T03:27:00;100191.22;;;15.20;48.70
75208;BME280;63795;55.684;37.864;2023-06-14T03:32:02;100189.06;;;15.28;46.34
75208;BME280;63795;55.684;37.864;2023-06-14T03:37:03;100191.31;;;15.40;47.15
75208;BME280;63795;55.684;37.864;2023-06-14T03:42:04;100183.91;;;15.46;47.50
75208;BME280;63795;55.684;37.864;2023-06-14T03:47:05;100189.41;;;15.60;48.25
75208;BME280;63795;55.684;37.864;2023-06-14T03:52:06;100193.69;;;15.72;45.83
75208;BME280;63795;55.684;37.864;2023-06-14T03:57:06;100190.66;;;15.82;45.15
75208;BME280;63795;55.684;37.864;2023-06-14T04:02:07;100199.06;;;15.93;45.44
75208;BME280;63795;55.684;37.864;2023-06-14T04:07:10;100193.88;;;16.07;44.78
75208;BME280;63795;55.684;37.864;2023-06-14T04:12:11;100192.09;;;16.17;46.56
75208;BME280;63795;55.684;37.864;2023-06-14T04:17:12;100185.03;;;16.22;47.22
75208;BME280;63795;55.684;37.864;2023-06-14T04:22:13;100190.13;;;16.34;47.57
75208;BME280;63795;55.684;37.864;2023-06-14T04:27:13;100191.50;;;16.49;46.39
75208;BME280;63795;55.684;37.864;2023-06-14T04:32:14;100192.81;;;16.64;46.12
75208;BME280;63795;55.684;37.864;2023-06-14T04:37:15;100183.66;;;16.72;46.29
75208;BME280;63795;55.684;37.864;2023-06-14T04:42:16;100176.31;;;16.91;46.19
75208;BME280;63795;55.684;37.864;2023-06-14T04:47:17;100181.00;;;17.01;45.67
75208;BME280;63795;55.684;37.864;2023-06-14T04:52:18;100181.78;;;17.21;45.79
75208;BME280;63795;55.684;37.864;2023-06-14T04:57:21;100196.84;;;17.41;45.21
75208;BME280;63795;55.684;37.864;2023-06-14T05:02:23;100186.31;;;17.54;44.96
75208;BME280;63795;55.684;37.864;2023-06-14T05:07:24;100177.84;;;17.67;44.81
75208;BME280;63795;55.684;37.864;2023-06-14T05:12:25;100184.28;;;17.87;44.11
75208;BME280;63795;55.684;37.864;2023-06-14T05:17:25;100189.47;;;18.08;43.96
75208;BME280;63795;55.684;37.864;2023-06-14T05:22:28;100184.16;;;18.23;42.98
75208;BME280;63795;55.684;37.864;2023-06-14T05:27:29;100179.72;;;18.34;42.91
75208;BME280;63795;55.684;37.864;2023-06-14T05:32:30;100182.13;;;18.52;42.21
75208;BME280;63795;55.684;37.864;2023-06-14T05:37:31;100179.66;;;18.66;41.92
75208;BME280;63795;55.684;37.864;2023-06-14T05:42:32;100182.47;;;18.83;41.55
75208;BME280;63795;55.684;37.864;2023-06-14T05:47:33;100193.09;;;18.98;41.04
75208;BME280;63795;55.684;37.864;2023-06-14T05:52:34;100188.88;;;19.15;40.23
75208;BME280;63795;55.684;37.864;2023-06-14T05:57:34;100190.84;;;19.31;39.68
75208;BME280;63795;55.684;37.864;2023-06-14T06:02:35;100182.97;;;19.47;39.40
75208;BME280;63795;55.684;37.864;2023-06-14T06:07:37;100201.59;;;19.68;38.09
75208;BME280;63795;55.684;37.864;2023-06-14T06:12:37;100191.03;;;19.78;38.30
75208;BME280;63795;55.684;37.864;2023-06-14T06:17:38;100176.50;;;19.94;36.36
75208;BME280;63795;55.684;37.864;2023-06-14T06:22:39;100173.56;;;20.06;36.68
75208;BME280;63795;55.684;37.864;2023-06-14T06:27:39;100186.56;;;20.36;36.54
75208;BME280;63795;55.684;37.864;2023-06-14T06:32:40;100186.72;;;20.54;35.03
75208;BME280;63795;55.684;37.864;2023-06-14T06:37:42;100182.44;;;20.80;34.57
75208;BME280;63795;55.684;37.864;2023-06-14T06:42:42;100186.69;;;21.41;30.72
75208;BME280;63795;55.684;37.864;2023-06-14T06:47:43;100182.97;;;22.11;30.54
75208;BME280;63795;55.684;37.864;2023-06-14T06:52:43;100181.44;;;22.46;29.68
75208;BME280;63795;55.684;37.864;2023-06-14T06:57:45;100201.06;;;22.96;28.87
75208;BME280;63795;55.684;37.864;2023-06-14T07:02:46;100202.63;;;23.24;28.97
75208;BME280;63795;55.684;37.864;2023-06-14T07:07:52;100185.06;;;23.37;28.27
75208;BME280;63795;55.684;37.864;2023-06-14T07:12:53;100185.06;;;23.46;27.83
75208;BME280;63795;55.684;37.864;2023-06-14T07:17:53;100189.09;;;23.81;27.13
75208;BME280;63795;55.684;37.864;2023-06-14T07:22:54;100195.09;;;24.10;26.66
75208;BME280;63795;55.684;37.864;2023-06-14T07:27:54;100187.25;;;24.49;26.39
75208;BME280;63795;55.684;37.864;2023-06-14T07:32:55;100176.66;;;24.46;26.78
75208;BME280;63795;55.684;37.864;2023-06-14T07:37:55;100165.22;;;24.90;27.46
75208;BME280;63795;55.684;37.864;2023-06-14T07:42:56;100180.13;;;24.83;27.13
75208;BME280;63795;55.684;37.864;2023-06-14T07:47:56;100185.75;;;25.01;26.33
75208;BME280;63795;55.684;37.864;2023-06-14T07:52:57;100179.50;;;24.79;25.98
75208;BME280;63795;55.684;37.864;2023-06-14T07:57:57;100180.28;;;24.79;26.37
75208;BME280;63795;55.684;37.864;2023-06-14T08:02:58;100168.63;;;24.88;25.91
75208;BME280;63795;55.684;37.864;2023-06-14T08:07:59;100169.97;;;25.46;25.93
75208;BME280;63795;55.684;37.864;2023-06-14T08:13:00;100176.50;;;25.90;25.08
75208;BME280;63795;55.684;37.864;2023-06-14T08:18:01;100178.44;;;25.78;24.74
75208;BME280;63795;55.684;37.864;2023-06-14T08:23:04;100183.22;;;25.81;25.39
75208;BME280;63795;55.684;37.864;2023-06-14T08:28:04;100173.34;;;26.23;25.05
75208;BME280;63795;55.684;37.864;2023-06-14T08:33:05;100178.50;;;26.33;24.81
75208;BME280;63795;55.684;37.864;2023-06-14T08:38:05;100178.81;;;26.55;23.68
75208;BME280;63795;55.684;37.864;2023-06-14T08:43:06;100186.16;;;26.91;23.04
75208;BME280;63795;55.684;37.864;2023-06-14T08:48:07;100173.31;;;27.03;24.23
75208;BME280;63795;55.684;37.864;2023-06-14T08:53:08;100169.44;;;27.12;22.91
75208;BME280;63795;55.684;37.864;2023-06-14T08:58:11;100168.06;;;26.81;23.11
75208;BME280;63795;55.684;37.864;2023-06-14T09:03:15;100161.91;;;27.25;23.57
75208;BME280;63795;55.684;37.864;2023-06-14T09:08:16;100163.84;;;27.08;21.97
75208;BME280;63795;55.684;37.864;2023-06-14T09:13:17;100160.88;;;27.28;22.80
75208;BME280;63795;55.684;37.864;2023-06-14T09:18:18;100139.13;;;27.49;22.79
75208;BME280;63795;55.684;37.864;2023-06-14T09:23:20;100147.50;;;27.16;22.50
75208;BME280;63795;55.684;37.864;2023-06-14T09:28:27;100144.50;;;27.05;22.31
75208;BME280;63795;55.684;37.864;2023-06-14T09:33:27;100152.47;;;27.10;21.67
75208;BME280;63795;55.684;37.864;2023-06-14T09:38:28;100138.88;;;26.76;22.02
75208;BME280;63795;55.684;37.864;2023-06-14T09:43:29;100141.84;;;27.33;21.30
75208;BME280;63795;55.684;37.864;2023-06-14T09:48:29;100134.53;;;27.37;22.45
75208;BME280;63795;55.684;37.864;2023-06-14T09:53:33;100126.31;;;27.72;21.32
75208;BME280;63795;55.684;37.864;2023-06-14T09:58:39;100118.81;;;27.29;21.83
75208;BME280;63795;55.684;37.864;2023-06-14T10:03:41;100108.22;;;27.57;21.41
75208;BME280;63795;55.684;37.864;2023-06-14T10:08:45;100102.59;;;27.91;21.51
75208;BME280;63795;55.684;37.864;2023-06-14T10:13:45;100095.59;;;27.71;21.30
75208;BME280;63795;55.684;37.864;2023-06-14T10:18:59;100095.28;;;28.01;22.35
75208;BME280;63795;55.684;37.864;2023-06-14T10:24:04;100106.72;;;28.58;20.59
75208;BME280;63795;55.684;37.864;2023-06-14T10:29:08;100095.38;;;28.82;20.49
75208;BME280;63795;55.684;37.864;2023-06-14T10:34:12;100098.41;;;28.50;20.60
75208;BME280;63795;55.684;37.864;2023-06-14T10:39:17;100099.59;;;28.86;20.79
75208;BME280;63795;55.684;37.864;2023-06-14T11:00:05;100061.69;;;29.08;20.56
75208;BME280;63795;55.684;37.864;2023-06-14T11:05:14;100070.34;;;30.19;20.70
75208;BME280;63795;55.684;37.864;2023-06-14T11:15:31;100072.31;;;29.89;19.25
75208;BME280;63795;55.684;37.864;2023-06-14T11:20:33;100062.00;;;29.60;19.20
75208;BME280;63795;55.684;37.864;2023-06-14T11:25:34;100058.53;;;29.45;19.69
75208;BME280;63795;55.684;37.864;2023-06-14T11:30:34;100056.41;;;29.46;20.00
75208;BME280;63795;55.684;37.864;2023-06-14T11:35:35;100046.81;;;29.84;19.49
75208;BME280;63795;55.684;37.864;2023-06-14T11:40:37;100046.75;;;30.06;19.55
75208;BME280;63795;55.684;37.864;2023-06-14T11:45:38;100043.78;;;30.74;19.83
75208;BME280;63795;55.684;37.864;2023-06-14T11:50:39;100038.75;;;30.06;19.68
75208;BME280;63795;55.684;37.864;2023-06-14T11:55:40;100028.25;;;29.54;20.11
75208;BME280;63795;55.684;37.864;2023-06-14T12:00:41;100016.84;;;29.17;20.26
75208;BME280;63795;55.684;37.864;2023-06-14T12:05:42;100024.38;;;30.08;19.94
75208;BME280;63795;55.684;37.864;2023-06-14T12:10:43;100022.19;;;31.13;20.11
75208;BME280;63795;55.684;37.864;2023-06-14T12:15:44;100029.84;;;30.91;19.36
75208;BME280;63795;55.684;37.864;2023-06-14T12:20:49;100024.03;;;30.80;19.57
75208;BME280;63795;55.684;37.864;2023-06-14T12:25:50;100002.25;;;31.89;19.52
75208;BME280;63795;55.684;37.864;2023-06-14T12:30:52;99997.28;;;32.08;19.17
75208;BME280;63795;55.684;37.864;2023-06-14T12:35:55;99995.25;;;32.40;18.54
75208;BME280;63795;55.684;37.864;2023-06-14T12:40:57;99992.75;;;31.83;17.36
75208;BME280;63795;55.684;37.864;2023-06-14T12:45:57;100007.72;;;31.26;17.98
75208;BME280;63795;55.684;37.864;2023-06-14T12:50:58;100004.38;;;30.75;18.55
75208;BME280;63795;55.684;37.864;2023-06-14T12:55:58;99993.31;;;31.57;17.20
75208;BME280;63795;55.684;37.864;2023-06-14T13:00:59;99990.22;;;31.15;18.47
75208;BME280;63795;55.684;37.864;2023-06-14T13:06:00;99988.34;;;31.47;17.64
75208;BME280;63795;55.684;37.864;2023-06-14T13:11:01;99980.44;;;31.07;18.28
75208;BME280;63795;55.684;37.864;2023-06-14T13:16:02;99979.53;;;30.87;18.42
75208;BME280;63795;55.684;37.864;2023-06-14T13:21:02;99976.19;;;30.26;18.90
75208;BME280;63795;55.684;37.864;2023-06-14T13:26:03;99974.81;;;30.38;18.79
75208;BME280;63795;55.684;37.864;2023-06-14T13:31:03;99967.25;;;30.54;18.66
75208;BME280;63795;55.684;37.864;2023-06-14T13:36:04;99962.22;;;30.49;18.59
75208;BME280;63795;55.684;37.864;2023-06-14T13:41:04;99971.25;;;31.21;18.43
75208;BME280;63795;55.684;37.864;2023-06-14T13:46:05;99964.84;;;31.52;19.19
75208;BME280;63795;55.684;37.864;2023-06-14T13:51:05;99966.03;;;31.09;18.63
75208;BME280;63795;55.684;37.864;2023-06-14T13:56:06;99953.16;;;30.06;19.46
75208;BME280;63795;55.684;37.864;2023-06-14T14:01:08;99953.94;;;29.21;20.02
75208;BME280;63795;55.684;37.864;2023-06-14T14:06:08;99949.09;;;28.52;20.13
75208;BME280;63795;55.684;37.864;2023-06-14T14:11:09;99954.91;;;28.30;20.92
75208;BME280;63795;55.684;37.864;2023-06-14T14:16:10;99933.41;;;27.57;21.55
75208;BME280;63795;55.684;37.864;2023-06-14T14:21:11;99945.63;;;26.88;22.60
75208;BME280;63795;55.684;37.864;2023-06-14T14:26:11;99929.66;;;26.78;21.95
75208;BME280;63795;55.684;37.864;2023-06-14T14:31:12;99942.34;;;27.12;21.78
75208;BME280;63795;55.684;37.864;2023-06-14T14:36:12;99935.63;;;27.31;22.06
75208;BME280;63795;55.684;37.864;2023-06-14T14:41:27;99939.41;;;27.06;22.04
75208;BME280;63795;55.684;37.864;2023-06-14T14:46:27;99943.09;;;27.01;22.72
75208;BME280;63795;55.684;37.864;2023-06-14T14:51:28;99939.16;;;26.73;23.22
75208;BME280;63795;55.684;37.864;2023-06-14T14:56:29;99939.53;;;26.29;23.20
75208;BME280;63795;55.684;37.864;2023-06-14T15:01:29;99945.25;;;26.24;23.13
75208;BME280;63795;55.684;37.864;2023-06-14T15:06:30;99952.06;;;26.15;23.14
75208;BME280;63795;55.684;37.864;2023-06-14T15:11:30;99938.00;;;26.13;23.07
75208;BME280;63795;55.684;37.864;2023-06-14T15:16:31;99946.81;;;26.19;22.74
75208;BME280;63795;55.684;37.864;2023-06-14T15:21:31;99950.50;;;25.99;23.61
75208;BME280;63795;55.684;37.864;2023-06-14T15:26:32;99948.34;;;25.94;23.32
75208;BME280;63795;55.684;37.864;2023-06-14T15:31:32;99955.16;;;25.91;23.02
75208;BME280;63795;55.684;37.864;2023-06-14T15:36:32;99957.78;;;25.89;23.51
75208;BME280;63795;55.684;37.864;2023-06-14T15:41:33;99960.97;;;25.91;23.74
75208;BME280;63795;55.684;37.864;2023-06-14T15:46:33;99964.06;;;25.82;23.71
75208;BME280;63795;55.684;37.864;2023-06-14T15:51:34;99938.91;;;25.39;24.00
75208;BME280;63795;55.684;37.864;2023-06-14T15:56:34;99953.31;;;25.33;24.12
75208;BME280;63795;55.684;37.864;2023-06-14T16:01:35;99943.06;;;25.18;24.16
75208;BME280;63795;55.684;37.864;2023-06-14T16:06:36;99950.53;;;25.04;24.44
75208;BME280;63795;55.684;37.864;2023-06-14T16:11:36;99938.13;;;24.89;24.73
75208;BME280;63795;55.684;37.864;2023-06-14T16:16:37;99939.66;;;24.85;24.77
75208;BME280;63795;55.684;37.864;2023-06-14T16:21:37;99947.34;;;24.73;24.96
75208;BME280;63795;55.684;37.864;2023-06-14T16:26:38;99964.66;;;24.68;25.27
75208;BME280;63795;55.684;37.864;2023-06-14T16:31:38;99960.97;;;24.53;25.12
75208;BME280;63795;55.684;37.864;2023-06-14T16:36:39;99967.34;;;24.57;24.98
75208;BME280;63795;55.684;37.864;2023-06-14T16:41:39;99972.75;;;24.64;24.77
75208;BME280;63795;55.684;37.864;2023-06-14T16:46:41;99975.59;;;24.73;24.68
75208;BME280;63795;55.684;37.864;2023-06-14T16:51:42;99974.44;;;24.56;25.02
75208;BME280;63795;55.684;37.864;2023-06-14T16:56:42;99977.97;;;24.45;24.88
75208;BME280;63795;55.684;37.864;2023-06-14T17:01:43;99984.34;;;24.34;24.61
75208;BME280;63795;55.684;37.864;2023-06-14T17:06:43;99993.53;;;24.33;25.61
75208;BME280;63795;55.684;37.864;2023-06-14T17:11:44;99979.84;;;24.19;25.03
75208;BME280;63795;55.684;37.864;2023-06-14T17:16:45;99973.31;;;24.09;24.94
75208;BME280;63795;55.684;37.864;2023-06-14T17:21:45;99983.03;;;23.97;25.17
75208;BME280;63795;55.684;37.864;2023-06-14T17:26:49;99977.53;;;23.85;25.34
75208;BME280;63795;55.684;37.864;2023-06-14T17:31:50;99980.19;;;23.74;26.08
75208;BME280;63795;55.684;37.864;2023-06-14T17:36:50;99973.25;;;23.56;25.91
75208;BME280;63795;55.684;37.864;2023-06-14T17:41:51;99986.03;;;23.41;26.26
75208;BME280;63795;55.684;37.864;2023-06-14T17:46:51;99986.91;;;23.32;26.42
75208;BME280;63795;55.684;37.864;2023-06-14T17:51:52;100001.03;;;23.30;26.65
75208;BME280;63795;55.684;37.864;2023-06-14T17:56:53;99993.69;;;23.20;26.58
75208;BME280;63795;55.684;37.864;2023-06-14T18:02:07;100007.03;;;23.18;27.51
75208;BME280;63795;55.684;37.864;2023-06-14T18:07:14;99998.63;;;22.96;27.24
75208;BME280;63795;55.684;37.864;2023-06-14T18:12:14;99999.50;;;22.78;27.36
75208;BME280;63795;55.684;37.864;2023-06-14T18:17:15;100003.72;;;22.68;27.37
75208;BME280;63795;55.684;37.864;2023-06-14T18:22:16;100012.72;;;22.52;27.34
75208;BME280;63795;55.684;37.864;2023-06-14T18:27:16;100011.59;;;22.41;27.82
75208;BME280;63795;55.684;37.864;2023-06-14T18:32:16;100012.72;;;22.43;27.91
75208;BME280;63795;55.684;37.864;2023-06-14T18:37:17;100015.31;;;22.32;27.96
75208;BME280;63795;55.684;37.864;2023-06-14T18:42:17;100016.09;;;22.33;27.68
75208;BME280;63795;55.684;37.864;2023-06-14T18:47:18;100014.34;;;22.26;28.93
75208;BME280;63795;55.684;37.864;2023-06-14T18:52:18;100021.41;;;22.25;28.42
75208;BME280;63795;55.684;37.864;2023-06-14T18:57:19;100025.44;;;22.10;28.04
75208;BME280;63795;55.684;37.864;2023-06-14T19:02:21;100018.88;;;22.00;28.21
75208;BME280;63795;55.684;37.864;2023-06-14T19:07:21;100007.78;;;21.98;28.46
75208;BME280;63795;55.684;37.864;2023-06-14T19:12:22;100019.16;;;21.93;28.55
75208;BME280;63795;55.684;37.864;2023-06-14T19:17:22;100009.38;;;21.81;28.69
75208;BME280;63795;55.684;37.864;2023-06-14T19:22:23;100001.31;;;21.58;28.77
75208;BME280;63795;55.684;37.864;2023-06-14T19:27:26;99987.97;;;21.34;29.23
75208;BME280;63795;55.684;37.864;2023-06-14T19:32:27;99999.84;;;21.36;30.19
75208;BME280;63795;55.684;37.864;2023-06-14T19:37:33;100007.06;;;21.40;29.27
75208;BME280;63795;55.684;37.864;2023-06-14T19:42:34;100007.00;;;21.22;30.16
75208;BME280;63795;55.684;37.864;2023-06-14T19:47:35;100008.44;;;21.17;29.61
75208;BME280;63795;55.684;37.864;2023-06-14T19:52:35;100014.53;;;21.20;29.88
75208;BME280;63795;55.684;37.864;2023-06-14T19:57:36;100022.03;;;21.08;30.11
75208;BME280;63795;55.684;37.864;2023-06-14T20:02:37;100029.69;;;21.02;31.42
75208;BME280;63795;55.684;37.864;2023-06-14T20:07:37;100030.41;;;20.93;30.35
75208;BME280;63795;55.684;37.864;2023-06-14T20:12:38;100035.03;;;20.91;31.43
75208;BME280;63795;55.684;37.864;2023-06-14T20:17:40;100024.56;;;20.75;31.05
75208;BME280;63795;55.684;37.864;2023-06-14T20:22:41;100026.44;;;20.69;30.47
75208;BME280;63795;55.684;37.864;2023-06-14T20:27:41;100027.38;;;20.66;31.84
75208;BME280;63795;55.684;37.864;2023-06-14T20:32:41;100035.56;;;20.68;31.18
75208;BME280;63795;55.684;37.864;2023-06-14T20:37:42;100026.41;;;20.60;30.70
75208;BME280;63795;55.684;37.864;2023-06-14T20:42:43;100025.75;;;20.56;30.67
75208;BME280;63795;55.684;37.864;2023-06-14T20:47:45;100036.38;;;20.47;31.79
75208;BME280;63795;55.684;37.864;2023-06-14T20:52:45;100035.50;;;20.37;30.85
75208;BME280;63795;55.684;37.864;2023-06-14T20:57:46;100031.16;;;20.32;30.88
75208;BME280;63795;55.684;37.864;2023-06-14T21:02:47;100033.84;;;20.27;30.76
75208;BME280;63795;55.684;37.864;2023-06-14T21:07:47;100028.44;;;20.16;30.99
75208;BME280;63795;55.684;37.864;2023-06-14T21:12:48;100018.03;;;20.10;31.08
75208;BME280;63795;55.684;37.864;2023-06-14T21:17:49;100026.66;;;20.10;31.43
75208;BME280;63795;55.684;37.864;2023-06-14T21:22:49;100032.31;;;20.01;31.08
75208;BME280;63795;55.684;37.864;2023-06-14T21:27:50;100028.44;;;19.95;31.21
75208;BME280;63795;55.684;37.864;2023-06-14T21:32:50;100031.13;;;19.89;31.06
75208;BME280;63795;55.684;37.864;2023-06-14T21:37:51;100022.16;;;19.87;31.31
75208;BME280;63795;55.684;37.864;2023-06-14T21:42:52;100024.47;;;19.80;31.22
75208;BME280;63795;55.684;37.864;2023-06-14T21:47:53;100010.00;;;19.71;31.63
75208;BME280;63795;55.684;37.864;2023-06-14T21:52:53;100014.06;;;19.61;31.66
75208;BME280;63795;55.684;37.864;2023-06-14T21:57:54;100012.34;;;19.50;31.79
75208;BME280;63795;55.684;37.864;2023-06-14T22:02:54;100012.16;;;19.45;31.86
75208;BME280;63795;55.684;37.864;2023-06-14T22:07:55;100009.84;;;19.40;33.26
75208;BME280;63795;55.684;37.864;2023-06-14T22:12:55;100018.25;;;19.34;33.01
75208;BME280;63795;55.684;37.864;2023-06-14T22:17:59;100014.47;;;19.25;31.61
75208;BME280;63795;55.684;37.864;2023-06-14T22:23:00;100015.41;;;19.22;32.84
75208;BME280;63795;55.684;37.864;2023-06-14T22:28:01;100020.25;;;19.00;33.38
75208;BME280;63795;55.684;37.864;2023-06-14T22:33:01;100008.53;;;18.82;34.64
75208;BME280;63795;55.684;37.864;2023-06-14T22:38:03;100010.00;;;18.74;35.92
75208;BME280;63795;55.684;37.864;2023-06-14T22:43:03;100003.75;;;18.50;33.50
75208;BME280;63795;55.684;37.864;2023-06-14T22:48:05;100004.69;;;18.47;33.77
75208;BME280;63795;55.684;37.864;2023-06-14T22:53:05;100007.38;;;18.38;33.49
75208;BME280;63795;55.684;37.864;2023-06-14T22:58:08;100012.06;;;18.32;35.30
75208;BME280;63795;55.684;37.864;2023-06-14T23:03:08;100007.81;;;18.24;35.53
75208;BME280;63795;55.684;37.864;2023-06-14T23:08:08;100012.38;;;18.09;33.82
75208;BME280;63795;55.684;37.864;2023-06-14T23:13:09;100014.41;;;17.96;34.86
75208;BME280;63795;55.684;37.864;2023-06-14T23:18:10;100014.59;;;17.89;35.30
75208;BME280;63795;55.684;37.864;2023-06-14T23:23:10;100017.31;;;17.79;36.21
75208;BME280;63795;55.684;37.864;2023-06-14T23:28:11;100015.56;;;17.69;35.22
75208;BME280;63795;55.684;37.864;2023-06-14T23:33:17;100013.22;;;17.64;34.92
75208;BME280;63795;55.684;37.864;2023-06-14T23:38:18;100009.53;;;17.64;35.00
75208;BME280;63795;55.684;37.864;2023-06-14T23:43:19;100010.47;;;17.61;34.63
75208;BME280;63795;55.684;37.864;2023-06-14T23:48:19;100000.78;;;17.55;35.41
75208;BME280;63795;55.684;37.864;2023-06-14T23:53:21;99998.97;;;17.45;35.30
75208;BME280;63795;55.684;37.864;2023-06-14T23:58:24;99996.94;;;17.29;35.94
